sensor_id;sensor_type;location;lat;lon;timestamp;P1;durP1;ratioP1;P2;durP2;ratioP2
9884;SDS011;4981;50.966;4.842;2023-07-13T00:01:48;4.28;;;1.35;;
9884;SDS011;4981;50.966;4.842;2023-07-13T00:04:16;4.93;;;1.13;;
9884;SDS011;4981;50.966;4.842;2023-07-13T00:06:44;7.07;;;1.63;;
9884;SDS011;4981;50.966;4.842;2023-07-13T00:09:12;5.10;;;1.38;;
9884;SDS011;4981;50.966;4.842;2023-07-13T00:11:41;4.70;;;1.47;;
9884;SDS011;4981;50.966;4.842;2023-07-13T00:14:09;4.43;;;1.10;;
9884;SDS011;4981;50.966;4.842;2023-07-13T00:16:38;6.63;;;1.70;;
9884;SDS011;4981;50.966;4.842;2023-07-13T00:19:09;6.47;;;1.40;;
9884;SDS011;4981;50.966;4.842;2023-07-13T00:21:36;4.73;;;1.37;;
9884;SDS011;4981;50.966;4.842;2023-07-13T00:24:04;6.20;;;1.25;;
9884;SDS011;4981;50.966;4.842;2023-07-13T00:26:32;5.00;;;1.50;;
9884;SDS011;4981;50.966;4.842;2023-07-13T00:29:01;7.90;;;1.77;;
9884;SDS011;4981;50.966;4.842;2023-07-13T00:31:28;5.97;;;1.33;;
9884;SDS011;4981;50.966;4.842;2023-07-13T00:33:55;5.53;;;1.13;;
9884;SDS011;4981;50.966;4.842;2023-07-13T00:36:22;6.57;;;1.60;;
9884;SDS011;4981;50.966;4.842;2023-07-13T00:38:49;5.33;;;1.20;;
9884;SDS011;4981;50.966;4.842;2023-07-13T00:41:15;4.97;;;1.47;;
9884;SDS011;4981;50.966;4.842;2023-07-13T00:43:42;4.43;;;1.57;;
9884;SDS011;4981;50.966;4.842;2023-07-13T00:46:13;5.57;;;1.53;;
9884;SDS011;4981;50.966;4.842;2023-07-13T00:48:43;6.90;;;1.57;;
9884;SDS011;4981;50.966;4.842;2023-07-13T00:51:12;6.03;;;1.10;;
9884;SDS011;4981;50.966;4.842;2023-07-13T00:53:41;4.87;;;1.50;;
9884;SDS011;4981;50.966;4.842;2023-07-13T00:56:09;9.30;;;1.80;;
9884;SDS011;4981;50.966;4.842;2023-07-13T00:58:36;6.07;;;1.40;;
9884;SDS011;4981;50.966;4.842;2023-07-13T01:01:04;5.67;;;1.80;;
9884;SDS011;4981;50.966;4.842;2023-07-13T01:03:32;5.73;;;1.40;;
9884;SDS011;4981;50.966;4.842;2023-07-13T01:06:01;5.00;;;1.63;;
9884;SDS011;4981;50.966;4.842;2023-07-13T01:08:29;4.53;;;1.70;;
9884;SDS011;4981;50.966;4.842;2023-07-13T01:10:56;5.30;;;1.70;;
9884;SDS011;4981;50.966;4.842;2023-07-13T01:13:24;6.60;;;1.50;;
9884;SDS011;4981;50.966;4.842;2023-07-13T01:15:52;7.00;;;1.30;;
9884;SDS011;4981;50.966;4.842;2023-07-13T01:18:21;4.53;;;1.50;;
9884;SDS011;4981;50.966;4.842;2023-07-13T01:20:53;7.93;;;1.80;;
9884;SDS011;4981;50.966;4.842;2023-07-13T01:23:21;6.77;;;2.00;;
9884;SDS011;4981;50.966;4.842;2023-07-13T01:25:49;7.50;;;1.60;;
9884;SDS011;4981;50.966;4.842;2023-07-13T01:28:16;6.20;;;1.77;;
9884;SDS011;4981;50.966;4.842;2023-07-13T01:30:45;6.87;;;1.70;;
9884;SDS011;4981;50.966;4.842;2023-07-13T01:33:12;7.37;;;2.00;;
9884;SDS011;4981;50.966;4.842;2023-07-13T01:35:41;7.27;;;1.87;;
9884;SDS011;4981;50.966;4.842;2023-07-13T01:38:11;7.87;;;2.13;;
9884;SDS011;4981;50.966;4.842;2023-07-13T01:40:39;7.23;;;1.80;;
9884;SDS011;4981;50.966;4.842;2023-07-13T01:43:06;7.67;;;1.87;;
9884;SDS011;4981;50.966;4.842;2023-07-13T01:45:33;6.43;;;1.60;;
9884;SDS011;4981;50.966;4.842;2023-07-13T01:48:00;3.70;;;1.40;;
9884;SDS011;4981;50.966;4.842;2023-07-13T01:50:27;5.87;;;1.70;;
9884;SDS011;4981;50.966;4.842;2023-07-13T01:52:54;7.63;;;2.07;;
9884;SDS011;4981;50.966;4.842;2023-07-13T01:55:23;10.30;;;1.73;;
9884;SDS011;4981;50.966;4.842;2023-07-13T01:57:50;5.90;;;1.80;;
9884;SDS011;4981;50.966;4.842;2023-07-13T02:00:17;7.77;;;1.70;;
9884;SDS011;4981;50.966;4.842;2023-07-13T02:02:45;7.13;;;1.70;;
9884;SDS011;4981;50.966;4.842;2023-07-13T02:05:12;4.90;;;1.47;;
9884;SDS011;4981;50.966;4.842;2023-07-13T02:07:40;8.50;;;1.80;;
9884;SDS011;4981;50.966;4.842;2023-07-13T02:10:08;5.50;;;1.70;;
9884;SDS011;4981;50.966;4.842;2023-07-13T02:12:38;8.60;;;1.93;;
9884;SDS011;4981;50.966;4.842;2023-07-13T02:15:05;8.17;;;1.77;;
9884;SDS011;4981;50.966;4.842;2023-07-13T02:17:33;11.17;;;1.97;;
9884;SDS011;4981;50.966;4.842;2023-07-13T02:20:01;7.23;;;1.80;;
9884;SDS011;4981;50.966;4.842;2023-07-13T02:22:29;9.67;;;2.20;;
9884;SDS011;4981;50.966;4.842;2023-07-13T02:24:56;6.97;;;2.17;;
9884;SDS011;4981;50.966;4.842;2023-07-13T02:27:23;7.17;;;1.60;;
9884;SDS011;4981;50.966;4.842;2023-07-13T02:29:52;9.63;;;1.77;;
9884;SDS011;4981;50.966;4.842;2023-07-13T02:32:19;10.03;;;2.33;;
9884;SDS011;4981;50.966;4.842;2023-07-13T02:34:46;6.80;;;1.60;;
9884;SDS011;4981;50.966;4.842;2023-07-13T02:37:13;10.93;;;1.90;;
9884;SDS011;4981;50.966;4.842;2023-07-13T02:39:40;7.87;;;1.90;;
9884;SDS011;4981;50.966;4.842;2023-07-13T02:42:07;7.97;;;1.80;;
9884;SDS011;4981;50.966;4.842;2023-07-13T02:44:34;7.93;;;1.87;;
9884;SDS011;4981;50.966;4.842;2023-07-13T02:47:02;6.90;;;2.10;;
9884;SDS011;4981;50.966;4.842;2023-07-13T02:49:29;8.70;;;1.60;;
9884;SDS011;4981;50.966;4.842;2023-07-13T02:51:57;9.77;;;1.80;;
9884;SDS011;4981;50.966;4.842;2023-07-13T02:54:24;8.77;;;1.93;;
9884;SDS011;4981;50.966;4.842;2023-07-13T02:56:51;7.50;;;1.97;;
9884;SDS011;4981;50.966;4.842;2023-07-13T02:59:18;9.37;;;1.70;;
9884;SDS011;4981;50.966;4.842;2023-07-13T03:01:45;7.77;;;1.83;;
9884;SDS011;4981;50.966;4.842;2023-07-13T03:04:13;8.57;;;1.93;;
9884;SDS011;4981;50.966;4.842;2023-07-13T03:06:44;6.47;;;2.20;;
9884;SDS011;4981;50.966;4.842;2023-07-13T03:09:12;8.77;;;2.00;;
9884;SDS011;4981;50.966;4.842;2023-07-13T03:11:38;6.00;;;1.67;;
9884;SDS011;4981;50.966;4.842;2023-07-13T03:14:06;4.23;;;1.60;;
9884;SDS011;4981;50.966;4.842;2023-07-13T03:16:34;6.80;;;1.80;;
9884;SDS011;4981;50.966;4.842;2023-07-13T03:19:01;6.83;;;1.80;;
9884;SDS011;4981;50.966;4.842;2023-07-13T03:21:29;8.70;;;1.73;;
9884;SDS011;4981;50.966;4.842;2023-07-13T03:23:57;10.33;;;1.97;;
9884;SDS011;4981;50.966;4.842;2023-07-13T03:26:24;9.77;;;2.17;;
9884;SDS011;4981;50.966;4.842;2023-07-13T03:28:51;9.43;;;2.10;;
9884;SDS011;4981;50.966;4.842;2023-07-13T03:31:19;9.17;;;2.03;;
9884;SDS011;4981;50.966;4.842;2023-07-13T03:33:48;8.83;;;2.30;;
9884;SDS011;4981;50.966;4.842;2023-07-13T03:36:16;14.40;;;2.00;;
9884;SDS011;4981;50.966;4.842;2023-07-13T03:38:47;8.13;;;2.43;;
9884;SDS011;4981;50.966;4.842;2023-07-13T03:41:14;9.40;;;2.27;;
9884;SDS011;4981;50.966;4.842;2023-07-13T03:43:41;8.97;;;2.43;;
9884;SDS011;4981;50.966;4.842;2023-07-13T03:46:09;6.70;;;2.40;;
9884;SDS011;4981;50.966;4.842;2023-07-13T03:48:36;11.40;;;2.67;;
9884;SDS011;4981;50.966;4.842;2023-07-13T03:51:05;8.97;;;2.30;;
9884;SDS011;4981;50.966;4.842;2023-07-13T03:53:32;8.30;;;2.23;;
9884;SDS011;4981;50.966;4.842;2023-07-13T03:56:00;12.70;;;2.93;;
9884;SDS011;4981;50.966;4.842;2023-07-13T03:58:29;12.60;;;2.33;;
9884;SDS011;4981;50.966;4.842;2023-07-13T04:00:58;9.80;;;2.50;;
9884;SDS011;4981;50.966;4.842;2023-07-13T04:03:27;7.03;;;1.83;;
9884;SDS011;4981;50.966;4.842;2023-07-13T04:05:58;8.83;;;2.27;;
9884;SDS011;4981;50.966;4.842;2023-07-13T04:08:26;8.50;;;2.20;;
9884;SDS011;4981;50.966;4.842;2023-07-13T04:10:53;9.93;;;2.40;;
9884;SDS011;4981;50.966;4.842;2023-07-13T04:13:22;9.27;;;2.17;;
9884;SDS011;4981;50.966;4.842;2023-07-13T04:15:49;12.17;;;2.07;;
9884;SDS011;4981;50.966;4.842;2023-07-13T04:18:17;5.63;;;1.97;;
9884;SDS011;4981;50.966;4.842;2023-07-13T04:20:45;7.23;;;1.80;;
9884;SDS011;4981;50.966;4.842;2023-07-13T04:23:12;10.23;;;2.40;;
9884;SDS011;4981;50.966;4.842;2023-07-13T04:25:39;10.40;;;2.27;;
9884;SDS011;4981;50.966;4.842;2023-07-13T04:28:09;7.37;;;2.30;;
9884;SDS011;4981;50.966;4.842;2023-07-13T04:30:37;6.53;;;2.07;;
9884;SDS011;4981;50.966;4.842;2023-07-13T04:33:04;7.30;;;2.13;;
9884;SDS011;4981;50.966;4.842;2023-07-13T04:35:31;11.23;;;2.17;;
9884;SDS011;4981;50.966;4.842;2023-07-13T04:37:58;11.10;;;2.30;;
9884;SDS011;4981;50.966;4.842;2023-07-13T04:40:26;6.97;;;1.93;;
9884;SDS011;4981;50.966;4.842;2023-07-13T04:42:53;10.97;;;2.03;;
9884;SDS011;4981;50.966;4.842;2023-07-13T04:45:21;11.23;;;2.20;;
9884;SDS011;4981;50.966;4.842;2023-07-13T04:47:51;10.70;;;2.33;;
9884;SDS011;4981;50.966;4.842;2023-07-13T04:50:18;8.87;;;2.27;;
9884;SDS011;4981;50.966;4.842;2023-07-13T04:52:48;11.83;;;2.63;;
9884;SDS011;4981;50.966;4.842;2023-07-13T04:55:15;10.03;;;2.97;;
9884;SDS011;4981;50.966;4.842;2023-07-13T04:57:43;10.77;;;2.73;;
9884;SDS011;4981;50.966;4.842;2023-07-13T05:00:10;7.90;;;2.33;;
9884;SDS011;4981;50.966;4.842;2023-07-13T05:02:38;12.97;;;3.00;;
9884;SDS011;4981;50.966;4.842;2023-07-13T05:05:07;10.90;;;2.63;;
9884;SDS011;4981;50.966;4.842;2023-07-13T05:07:34;6.70;;;2.60;;
9884;SDS011;4981;50.966;4.842;2023-07-13T05:10:01;12.53;;;2.93;;
9884;SDS011;4981;50.966;4.842;2023-07-13T05:12:29;11.67;;;2.50;;
9884;SDS011;4981;50.966;4.842;2023-07-13T05:14:56;12.83;;;2.70;;
9884;SDS011;4981;50.966;4.842;2023-07-13T05:17:23;7.47;;;2.40;;
9884;SDS011;4981;50.966;4.842;2023-07-13T05:19:50;9.07;;;2.53;;
9884;SDS011;4981;50.966;4.842;2023-07-13T05:22:19;13.20;;;2.93;;
9884;SDS011;4981;50.966;4.842;2023-07-13T05:24:46;7.90;;;2.67;;
9884;SDS011;4981;50.966;4.842;2023-07-13T05:27:13;12.27;;;3.13;;
9884;SDS011;4981;50.966;4.842;2023-07-13T05:29:40;13.83;;;3.43;;
9884;SDS011;4981;50.966;4.842;2023-07-13T05:32:07;14.30;;;3.10;;
9884;SDS011;4981;50.966;4.842;2023-07-13T05:34:34;10.90;;;2.23;;
9884;SDS011;4981;50.966;4.842;2023-07-13T05:37:01;11.40;;;2.60;;
9884;SDS011;4981;50.966;4.842;2023-07-13T05:39:29;11.90;;;2.50;;
9884;SDS011;4981;50.966;4.842;2023-07-13T05:41:56;11.97;;;2.60;;
9884;SDS011;4981;50.966;4.842;2023-07-13T05:44:23;10.30;;;2.83;;
9884;SDS011;4981;50.966;4.842;2023-07-13T05:46:50;8.93;;;2.70;;
9884;SDS011;4981;50.966;4.842;2023-07-13T05:49:17;7.03;;;2.37;;
9884;SDS011;4981;50.966;4.842;2023-07-13T05:51:44;11.77;;;3.20;;
9884;SDS011;4981;50.966;4.842;2023-07-13T05:54:11;11.23;;;2.87;;
9884;SDS011;4981;50.966;4.842;2023-07-13T05:56:39;10.73;;;2.93;;
9884;SDS011;4981;50.966;4.842;2023-07-13T05:59:06;13.57;;;3.07;;
9884;SDS011;4981;50.966;4.842;2023-07-13T06:01:33;14.53;;;3.30;;
9884;SDS011;4981;50.966;4.842;2023-07-13T06:04:00;9.20;;;2.40;;
9884;SDS011;4981;50.966;4.842;2023-07-13T06:06:27;12.73;;;2.43;;
9884;SDS011;4981;50.966;4.842;2023-07-13T06:08:54;14.80;;;3.10;;
9884;SDS011;4981;50.966;4.842;2023-07-13T06:11:22;13.67;;;3.37;;
9884;SDS011;4981;50.966;4.842;2023-07-13T06:13:52;10.17;;;3.17;;
9884;SDS011;4981;50.966;4.842;2023-07-13T06:16:19;11.40;;;2.80;;
9884;SDS011;4981;50.966;4.842;2023-07-13T06:18:46;10.67;;;3.10;;
9884;SDS011;4981;50.966;4.842;2023-07-13T06:21:14;10.07;;;2.97;;
9884;SDS011;4981;50.966;4.842;2023-07-13T06:23:42;14.40;;;3.20;;
9884;SDS011;4981;50.966;4.842;2023-07-13T08:03:38;12.00;;;3.17;;
9884;SDS011;4981;50.966;4.842;2023-07-13T08:06:05;9.43;;;2.80;;
9884;SDS011;4981;50.966;4.842;2023-07-13T08:08:32;9.20;;;2.67;;
9884;SDS011;4981;50.966;4.842;2023-07-13T08:11:02;10.87;;;2.90;;
9884;SDS011;4981;50.966;4.842;2023-07-13T08:13:29;8.73;;;2.60;;
9884;SDS011;4981;50.966;4.842;2023-07-13T08:15:56;9.43;;;3.10;;
9884;SDS011;4981;50.966;4.842;2023-07-13T08:18:24;9.50;;;2.83;;
9884;SDS011;4981;50.966;4.842;2023-07-13T08:20:52;10.33;;;3.23;;
9884;SDS011;4981;50.966;4.842;2023-07-13T08:23:21;11.90;;;3.10;;
9884;SDS011;4981;50.966;4.842;2023-07-13T08:25:50;12.30;;;3.00;;
9884;SDS011;4981;50.966;4.842;2023-07-13T08:28:17;11.83;;;3.37;;
9884;SDS011;4981;50.966;4.842;2023-07-13T08:30:45;10.23;;;2.77;;
9884;SDS011;4981;50.966;4.842;2023-07-13T08:33:14;6.63;;;2.05;;
9884;SDS011;4981;50.966;4.842;2023-07-13T08:35:41;11.20;;;2.75;;
9884;SDS011;4981;50.966;4.842;2023-07-13T08:38:09;10.45;;;2.80;;
9884;SDS011;4981;50.966;4.842;2023-07-13T08:40:36;11.65;;;2.85;;
9884;SDS011;4981;50.966;4.842;2023-07-13T08:43:03;13.43;;;2.60;;
9884;SDS011;4981;50.966;4.842;2023-07-13T08:45:32;11.82;;;2.75;;
9884;SDS011;4981;50.966;4.842;2023-07-13T08:48:05;14.15;;;2.90;;
9884;SDS011;4981;50.966;4.842;2023-07-13T08:50:51;8.40;;;2.60;;
9884;SDS011;4981;50.966;4.842;2023-07-13T08:53:26;9.38;;;2.55;;
9884;SDS011;4981;50.966;4.842;2023-07-13T08:55:57;10.40;;;2.60;;
9884;SDS011;4981;50.966;4.842;2023-07-13T08:58:25;8.60;;;2.45;;
9884;SDS011;4981;50.966;4.842;2023-07-13T09:00:56;7.05;;;2.22;;
9884;SDS011;4981;50.966;4.842;2023-07-13T09:03:37;9.63;;;2.45;;
9884;SDS011;4981;50.966;4.842;2023-07-13T09:06:10;11.27;;;3.05;;
9884;SDS011;4981;50.966;4.842;2023-07-13T09:08:56;6.85;;;2.20;;
9884;SDS011;4981;50.966;4.842;2023-07-13T09:11:35;10.10;;;2.40;;
9884;SDS011;4981;50.966;4.842;2023-07-13T09:14:17;8.98;;;2.33;;
9884;SDS011;4981;50.966;4.842;2023-07-13T09:16:57;8.65;;;2.50;;
9884;SDS011;4981;50.966;4.842;2023-07-13T09:19:27;8.83;;;2.73;;
9884;SDS011;4981;50.966;4.842;2023-07-13T09:21:57;11.32;;;2.28;;
9884;SDS011;4981;50.966;4.842;2023-07-13T09:24:32;7.80;;;2.27;;
9884;SDS011;4981;50.966;4.842;2023-07-13T09:27:12;11.32;;;2.17;;
9884;SDS011;4981;50.966;4.842;2023-07-13T09:29:45;5.22;;;2.00;;
9884;SDS011;4981;50.966;4.842;2023-07-13T09:32:16;8.40;;;2.25;;
9884;SDS011;4981;50.966;4.842;2023-07-13T09:34:50;11.10;;;2.57;;
9884;SDS011;4981;50.966;4.842;2023-07-13T09:37:18;5.75;;;2.30;;
9884;SDS011;4981;50.966;4.842;2023-07-13T09:39:48;7.53;;;2.20;;
9884;SDS011;4981;50.966;4.842;2023-07-13T09:42:18;8.00;;;2.17;;
9884;SDS011;4981;50.966;4.842;2023-07-13T09:44:52;9.37;;;2.10;;
9884;SDS011;4981;50.966;4.842;2023-07-13T09:47:23;7.70;;;1.90;;
9884;SDS011;4981;50.966;4.842;2023-07-13T09:49:55;7.28;;;2.20;;
9884;SDS011;4981;50.966;4.842;2023-07-13T09:52:24;4.60;;;1.75;;
9884;SDS011;4981;50.966;4.842;2023-07-13T09:54:54;6.13;;;1.70;;
9884;SDS011;4981;50.966;4.842;2023-07-13T09:57:25;6.93;;;1.73;;
9884;SDS011;4981;50.966;4.842;2023-07-13T09:59:54;6.13;;;2.05;;
9884;SDS011;4981;50.966;4.842;2023-07-13T10:02:25;8.18;;;1.83;;
9884;SDS011;4981;50.966;4.842;2023-07-13T10:04:57;11.65;;;1.88;;
9884;SDS011;4981;50.966;4.842;2023-07-13T10:07:25;7.55;;;1.90;;
9884;SDS011;4981;50.966;4.842;2023-07-13T10:09:54;5.95;;;1.85;;
9884;SDS011;4981;50.966;4.842;2023-07-13T10:12:21;6.03;;;1.80;;
9884;SDS011;4981;50.966;4.842;2023-07-13T10:14:50;10.30;;;2.33;;
9884;SDS011;4981;50.966;4.842;2023-07-13T10:17:18;6.33;;;1.80;;
9884;SDS011;4981;50.966;4.842;2023-07-13T10:19:52;6.95;;;1.88;;
9884;SDS011;4981;50.966;4.842;2023-07-13T10:22:21;8.48;;;2.28;;
9884;SDS011;4981;50.966;4.842;2023-07-13T10:24:55;6.13;;;1.65;;
9884;SDS011;4981;50.966;4.842;2023-07-13T10:27:24;10.82;;;1.90;;
9884;SDS011;4981;50.966;4.842;2023-07-13T10:29:59;6.07;;;1.83;;
9884;SDS011;4981;50.966;4.842;2023-07-13T10:32:38;5.43;;;1.70;;
9884;SDS011;4981;50.966;4.842;2023-07-13T10:35:05;5.78;;;1.67;;
9884;SDS011;4981;50.966;4.842;2023-07-13T10:37:39;4.13;;;1.60;;
9884;SDS011;4981;50.966;4.842;2023-07-13T10:40:14;7.60;;;1.70;;
9884;SDS011;4981;50.966;4.842;2023-07-13T10:42:45;4.63;;;1.20;;
9884;SDS011;4981;50.966;4.842;2023-07-13T10:45:14;6.68;;;1.77;;
9884;SDS011;4981;50.966;4.842;2023-07-13T10:47:43;31.38;;;3.08;;
9884;SDS011;4981;50.966;4.842;2023-07-13T10:50:13;4.82;;;1.67;;
9884;SDS011;4981;50.966;4.842;2023-07-13T10:52:45;9.38;;;1.75;;
9884;SDS011;4981;50.966;4.842;2023-07-13T10:55:37;6.13;;;1.75;;
9884;SDS011;4981;50.966;4.842;2023-07-13T10:58:14;4.05;;;1.42;;
9884;SDS011;4981;50.966;4.842;2023-07-13T11:00:49;4.60;;;1.73;;
9884;SDS011;4981;50.966;4.842;2023-07-13T11:03:22;8.77;;;1.80;;
9884;SDS011;4981;50.966;4.842;2023-07-13T11:05:52;7.78;;;1.90;;
9884;SDS011;4981;50.966;4.842;2023-07-13T11:08:34;4.82;;;1.50;;
9884;SDS011;4981;50.966;4.842;2023-07-13T11:11:05;5.00;;;1.40;;
9884;SDS011;4981;50.966;4.842;2023-07-13T11:14:01;6.63;;;1.60;;
9884;SDS011;4981;50.966;4.842;2023-07-13T11:16:34;4.75;;;1.40;;
9884;SDS011;4981;50.966;4.842;2023-07-13T11:19:25;6.07;;;2.05;;
9884;SDS011;4981;50.966;4.842;2023-07-13T11:22:09;22.75;;;2.50;;
9884;SDS011;4981;50.966;4.842;2023-07-13T11:24:49;3.80;;;1.20;;
9884;SDS011;4981;50.966;4.842;2023-07-13T11:27:36;5.43;;;1.77;;
9884;SDS011;4981;50.966;4.842;2023-07-13T11:30:21;4.97;;;1.60;;
9884;SDS011;4981;50.966;4.842;2023-07-13T11:32:51;4.65;;;1.60;;
9884;SDS011;4981;50.966;4.842;2023-07-13T11:35:31;8.00;;;1.67;;
9884;SDS011;4981;50.966;4.842;2023-07-13T11:38:01;5.25;;;1.58;;
9884;SDS011;4981;50.966;4.842;2023-07-13T11:40:28;6.10;;;1.85;;
9884;SDS011;4981;50.966;4.842;2023-07-13T11:43:01;3.70;;;1.35;;
9884;SDS011;4981;50.966;4.842;2023-07-13T11:45:32;6.18;;;1.40;;
9884;SDS011;4981;50.966;4.842;2023-07-13T11:47:59;5.55;;;1.58;;
9884;SDS011;4981;50.966;4.842;2023-07-13T11:50:26;3.20;;;1.20;;
9884;SDS011;4981;50.966;4.842;2023-07-13T11:52:54;8.50;;;2.00;;
9884;SDS011;4981;50.966;4.842;2023-07-13T11:55:22;5.10;;;1.27;;
9884;SDS011;4981;50.966;4.842;2023-07-13T11:57:57;7.25;;;1.90;;
9884;SDS011;4981;50.966;4.842;2023-07-13T12:00:28;6.15;;;1.73;;
9884;SDS011;4981;50.966;4.842;2023-07-13T12:02:59;3.95;;;1.52;;
9884;SDS011;4981;50.966;4.842;2023-07-13T12:05:29;6.82;;;2.08;;
9884;SDS011;4981;50.966;4.842;2023-07-13T12:07:57;4.47;;;1.55;;
9884;SDS011;4981;50.966;4.842;2023-07-13T12:10:25;5.25;;;1.55;;
9884;SDS011;4981;50.966;4.842;2023-07-13T12:12:54;5.50;;;1.52;;
9884;SDS011;4981;50.966;4.842;2023-07-13T12:15:23;4.95;;;1.40;;
9884;SDS011;4981;50.966;4.842;2023-07-13T12:17:56;3.88;;;1.45;;
9884;SDS011;4981;50.966;4.842;2023-07-13T12:20:24;5.40;;;1.52;;
9884;SDS011;4981;50.966;4.842;2023-07-13T12:22:53;4.25;;;1.42;;
9884;SDS011;4981;50.966;4.842;2023-07-13T12:25:20;7.72;;;1.63;;
9884;SDS011;4981;50.966;4.842;2023-07-13T12:27:55;12.93;;;2.22;;
9884;SDS011;4981;50.966;4.842;2023-07-13T12:30:23;5.55;;;1.73;;
9884;SDS011;4981;50.966;4.842;2023-07-13T12:32:59;6.93;;;1.90;;
9884;SDS011;4981;50.966;4.842;2023-07-13T12:35:28;4.13;;;1.77;;
9884;SDS011;4981;50.966;4.842;2023-07-13T12:38:00;6.68;;;2.20;;
9884;SDS011;4981;50.966;4.842;2023-07-13T12:40:29;7.00;;;1.87;;
9884;SDS011;4981;50.966;4.842;2023-07-13T12:42:59;10.30;;;2.70;;
9884;SDS011;4981;50.966;4.842;2023-07-13T12:45:29;5.57;;;2.60;;
9884;SDS011;4981;50.966;4.842;2023-07-13T12:48:04;5.70;;;2.50;;
9884;SDS011;4981;50.966;4.842;2023-07-13T12:50:40;6.07;;;2.43;;
9884;SDS011;4981;50.966;4.842;2023-07-13T12:53:12;5.60;;;2.37;;
9884;SDS011;4981;50.966;4.842;2023-07-13T12:55:41;4.50;;;1.87;;
9884;SDS011;4981;50.966;4.842;2023-07-13T12:58:13;4.10;;;2.13;;
9884;SDS011;4981;50.966;4.842;2023-07-13T13:00:48;3.83;;;1.73;;
9884;SDS011;4981;50.966;4.842;2023-07-13T13:03:22;5.27;;;1.50;;
9884;SDS011;4981;50.966;4.842;2023-07-13T13:05:57;6.43;;;1.77;;
9884;SDS011;4981;50.966;4.842;2023-07-13T13:08:28;13.17;;;2.27;;
9884;SDS011;4981;50.966;4.842;2023-07-13T13:10:55;3.07;;;1.90;;
9884;SDS011;4981;50.966;4.842;2023-07-13T13:13:22;5.33;;;2.10;;
9884;SDS011;4981;50.966;4.842;2023-07-13T13:15:49;5.50;;;2.20;;
9884;SDS011;4981;50.966;4.842;2023-07-13T13:18:20;3.87;;;2.00;;
9884;SDS011;4981;50.966;4.842;2023-07-13T13:20:49;4.97;;;1.80;;
9884;SDS011;4981;50.966;4.842;2023-07-13T13:23:18;4.97;;;1.73;;
9884;SDS011;4981;50.966;4.842;2023-07-13T13:25:48;5.93;;;1.53;;
9884;SDS011;4981;50.966;4.842;2023-07-13T13:28:17;4.10;;;1.70;;
9884;SDS011;4981;50.966;4.842;2023-07-13T13:30:45;4.63;;;1.43;;
9884;SDS011;4981;50.966;4.842;2023-07-13T13:33:14;4.47;;;1.73;;
9884;SDS011;4981;50.966;4.842;2023-07-13T13:35:45;4.63;;;1.67;;
9884;SDS011;4981;50.966;4.842;2023-07-13T13:38:12;3.53;;;1.70;;
9884;SDS011;4981;50.966;4.842;2023-07-13T13:40:41;3.40;;;1.37;;
9884;SDS011;4981;50.966;4.842;2023-07-13T13:43:13;2.87;;;1.30;;
9884;SDS011;4981;50.966;4.842;2023-07-13T13:45:42;3.93;;;1.27;;
9884;SDS011;4981;50.966;4.842;2023-07-13T13:48:12;3.17;;;1.43;;
9884;SDS011;4981;50.966;4.842;2023-07-13T13:50:41;3.97;;;1.40;;
9884;SDS011;4981;50.966;4.842;2023-07-13T13:53:11;2.20;;;1.38;;
9884;SDS011;4981;50.966;4.842;2023-07-13T13:55:39;4.73;;;1.53;;
9884;SDS011;4981;50.966;4.842;2023-07-13T13:58:07;4.05;;;1.40;;
9884;SDS011;4981;50.966;4.842;2023-07-13T14:00:34;3.83;;;1.63;;
9884;SDS011;4981;50.966;4.842;2023-07-13T14:03:02;3.07;;;1.50;;
9884;SDS011;4981;50.966;4.842;2023-07-13T14:05:29;5.07;;;1.90;;
9884;SDS011;4981;50.966;4.842;2023-07-13T14:07:57;4.47;;;1.55;;
9884;SDS011;4981;50.966;4.842;2023-07-13T14:10:26;4.97;;;1.70;;
9884;SDS011;4981;50.966;4.842;2023-07-13T14:12:54;3.57;;;1.70;;
9884;SDS011;4981;50.966;4.842;2023-07-13T14:15:22;4.73;;;1.83;;
9884;SDS011;4981;50.966;4.842;2023-07-13T14:17:51;3.13;;;1.40;;
9884;SDS011;4981;50.966;4.842;2023-07-13T14:20:20;4.17;;;1.60;;
9884;SDS011;4981;50.966;4.842;2023-07-13T14:22:49;3.90;;;1.30;;
9884;SDS011;4981;50.966;4.842;2023-07-13T14:25:17;3.47;;;1.52;;
9884;SDS011;4981;50.966;4.842;2023-07-13T14:27:47;6.10;;;1.57;;
9884;SDS011;4981;50.966;4.842;2023-07-13T14:30:18;3.63;;;1.60;;
9884;SDS011;4981;50.966;4.842;2023-07-13T14:32:46;5.47;;;1.70;;
9884;SDS011;4981;50.966;4.842;2023-07-13T14:35:14;2.92;;;1.40;;
9884;SDS011;4981;50.966;4.842;2023-07-13T14:37:42;4.55;;;1.50;;
9884;SDS011;4981;50.966;4.842;2023-07-13T14:40:12;4.07;;;1.70;;
9884;SDS011;4981;50.966;4.842;2023-07-13T14:42:40;3.63;;;1.17;;
9884;SDS011;4981;50.966;4.842;2023-07-13T14:45:13;4.85;;;1.35;;
9884;SDS011;4981;50.966;4.842;2023-07-13T14:47:41;4.25;;;1.20;;
9884;SDS011;4981;50.966;4.842;2023-07-13T14:50:13;2.63;;;1.10;;
9884;SDS011;4981;50.966;4.842;2023-07-13T14:52:41;5.53;;;1.25;;
9884;SDS011;4981;50.966;4.842;2023-07-13T14:55:10;2.47;;;1.27;;
9884;SDS011;4981;50.966;4.842;2023-07-13T14:57:38;3.28;;;1.52;;
9884;SDS011;4981;50.966;4.842;2023-07-13T15:00:07;4.10;;;1.58;;
9884;SDS011;4981;50.966;4.842;2023-07-13T15:02:42;1.88;;;1.10;;
9884;SDS011;4981;50.966;4.842;2023-07-13T15:05:13;4.82;;;1.70;;
9884;SDS011;4981;50.966;4.842;2023-07-13T15:07:41;4.13;;;1.45;;
9884;SDS011;4981;50.966;4.842;2023-07-13T15:10:12;4.10;;;1.40;;
9884;SDS011;4981;50.966;4.842;2023-07-13T15:12:40;2.95;;;1.40;;
9884;SDS011;4981;50.966;4.842;2023-07-13T15:15:07;3.72;;;1.20;;
9884;SDS011;4981;50.966;4.842;2023-07-13T15:17:37;2.90;;;1.20;;
9884;SDS011;4981;50.966;4.842;2023-07-13T15:20:06;2.80;;;1.30;;
9884;SDS011;4981;50.966;4.842;2023-07-13T15:22:46;2.63;;;1.20;;
9884;SDS011;4981;50.966;4.842;2023-07-13T15:25:15;6.82;;;1.27;;
9884;SDS011;4981;50.966;4.842;2023-07-13T15:27:44;4.18;;;1.23;;
9884;SDS011;4981;50.966;4.842;2023-07-13T15:30:12;6.60;;;1.45;;
9884;SDS011;4981;50.966;4.842;2023-07-13T15:32:42;3.45;;;1.45;;
9884;SDS011;4981;50.966;4.842;2023-07-13T15:35:13;2.60;;;1.33;;
9884;SDS011;4981;50.966;4.842;2023-07-13T15:37:42;2.70;;;1.10;;
9884;SDS011;4981;50.966;4.842;2023-07-13T15:40:10;2.80;;;1.20;;
9884;SDS011;4981;50.966;4.842;2023-07-13T15:42:38;2.42;;;1.17;;
9884;SDS011;4981;50.966;4.842;2023-07-13T15:45:13;5.05;;;1.20;;
9884;SDS011;4981;50.966;4.842;2023-07-13T15:47:44;3.05;;;1.23;;
9884;SDS011;4981;50.966;4.842;2023-07-13T15:50:12;3.75;;;1.30;;
9884;SDS011;4981;50.966;4.842;2023-07-13T15:52:40;2.38;;;0.82;;
9884;SDS011;4981;50.966;4.842;2023-07-13T15:55:10;4.32;;;1.23;;
9884;SDS011;4981;50.966;4.842;2023-07-13T15:57:38;2.72;;;1.40;;
9884;SDS011;4981;50.966;4.842;2023-07-13T16:00:13;3.20;;;1.27;;
9884;SDS011;4981;50.966;4.842;2023-07-13T16:02:46;3.90;;;1.30;;
9884;SDS011;4981;50.966;4.842;2023-07-13T16:05:14;2.63;;;1.40;;
9884;SDS011;4981;50.966;4.842;2023-07-13T16:07:42;1.33;;;1.08;;
9884;SDS011;4981;50.966;4.842;2023-07-13T16:10:13;4.75;;;1.30;;
9884;SDS011;4981;50.966;4.842;2023-07-13T16:12:41;5.85;;;1.60;;
9884;SDS011;4981;50.966;4.842;2023-07-13T16:15:11;2.78;;;1.05;;
9884;SDS011;4981;50.966;4.842;2023-07-13T16:17:41;2.95;;;1.05;;
9884;SDS011;4981;50.966;4.842;2023-07-13T16:20:10;2.67;;;1.30;;
9884;SDS011;4981;50.966;4.842;2023-07-13T16:22:38;4.40;;;1.20;;
9884;SDS011;4981;50.966;4.842;2023-07-13T16:25:13;4.43;;;1.30;;
9884;SDS011;4981;50.966;4.842;2023-07-13T16:27:43;5.28;;;1.33;;
9884;SDS011;4981;50.966;4.842;2023-07-13T16:30:14;1.95;;;1.10;;
9884;SDS011;4981;50.966;4.842;2023-07-13T16:32:46;3.65;;;1.17;;
9884;SDS011;4981;50.966;4.842;2023-07-13T16:35:17;2.17;;;1.20;;
9884;SDS011;4981;50.966;4.842;2023-07-13T16:37:44;2.75;;;1.30;;
9884;SDS011;4981;50.966;4.842;2023-07-13T16:40:18;2.80;;;1.20;;
9884;SDS011;4981;50.966;4.842;2023-07-13T16:42:48;3.70;;;1.20;;
9884;SDS011;4981;50.966;4.842;2023-07-13T16:45:16;3.05;;;1.27;;
9884;SDS011;4981;50.966;4.842;2023-07-13T16:47:45;2.63;;;1.30;;
9884;SDS011;4981;50.966;4.842;2023-07-13T16:50:17;2.85;;;1.42;;
9884;SDS011;4981;50.966;4.842;2023-07-13T16:52:46;2.72;;;1.30;;
9884;SDS011;4981;50.966;4.842;2023-07-13T16:55:15;4.97;;;1.40;;
9884;SDS011;4981;50.966;4.842;2023-07-13T16:57:47;2.78;;;1.40;;
9884;SDS011;4981;50.966;4.842;2023-07-13T17:00:21;5.00;;;1.60;;
9884;SDS011;4981;50.966;4.842;2023-07-13T17:02:53;3.20;;;1.27;;
9884;SDS011;4981;50.966;4.842;2023-07-13T17:05:28;3.75;;;1.40;;